createdAt,value
2023-03-21T00:00:48.101Z,10.51
2023-03-21T00:03:17.930Z,10.49
2023-03-21T00:05:49.959Z,10.48
2023-03-21T00:08:18.521Z,10.45
2023-03-21T00:10:46.974Z,10.41
2023-03-21T00:13:19.165Z,10.41
2023-03-21T00:16:04.228Z,10.39
2023-03-21T00:18:42.275Z,10.37
2023-03-21T00:24:04.427Z,10.28
2023-03-21T00:26:35.744Z,10.26
2023-03-21T00:29:04.285Z,10.25
2023-03-21T00:31:32.570Z,10.23
2023-03-21T00:34:09.223Z,10.20
2023-03-21T00:36:38.009Z,10.18
2023-03-21T00:39:09.211Z,10.16
2023-03-21T00:41:44.830Z,10.15
2023-03-21T00:44:16.541Z,10.12
2023-03-21T00:46:57.362Z,10.09
2023-03-21T00:49:35.288Z,10.04
2023-03-21T00:52:15.822Z,10.02
2023-03-21T00:54:47.277Z,9.99
2023-03-21T00:57:20.151Z,9.95
2023-03-21T00:59:54.073Z,9.95
2023-03-21T01:02:26.756Z,9.93
2023-03-21T01:04:59.469Z,9.92
2023-03-21T01:07:27.801Z,9.92
2023-03-21T01:09:56.084Z,9.92
2023-03-21T01:12:24.384Z,9.90
2023-03-21T01:14:55.426Z,9.88
2023-03-21T01:17:23.730Z,9.88
2023-03-21T01:19:54.726Z,9.88
2023-03-21T01:22:24.451Z,9.88
2023-03-21T01:24:58.599Z,9.88
2023-03-21T01:27:29.053Z,9.88
2023-03-21T01:30:00.236Z,9.87
2023-03-21T01:32:28.551Z,9.87
2023-03-21T01:34:59.630Z,9.89
2023-03-21T01:37:29.316Z,9.88
2023-03-21T01:40:00.264Z,9.88
2023-03-21T01:42:28.574Z,9.89
2023-03-21T01:45:00.115Z,9.87
2023-03-21T01:47:28.614Z,9.88
2023-03-21T01:50:00.705Z,9.86
2023-03-21T01:52:37.386Z,9.86
2023-03-21T01:55:12.018Z,9.87
2023-03-21T01:57:58.472Z,9.86
2023-03-21T02:00:33.967Z,9.86
2023-03-21T02:03:19.041Z,9.87
2023-03-21T02:05:57.269Z,9.87
2023-03-21T02:08:38.260Z,9.87
2023-03-21T02:11:09.970Z,9.87
2023-03-21T02:13:38.750Z,9.87
2023-03-21T02:16:18.544Z,9.90
2023-03-21T02:18:56.776Z,9.92
2023-03-21T02:22:37.151Z,9.92
2023-03-21T02:25:54.240Z,9.90
2023-03-21T02:28:27.417Z,9.88
2023-03-21T02:31:15.934Z,9.90
2023-03-21T02:34:35.570Z,9.89
2023-03-21T02:37:23.537Z,9.92
2023-03-21T02:40:13.020Z,9.93
2023-03-21T02:43:00.877Z,9.94
2023-03-21T02:45:48.024Z,9.95
2023-03-21T02:48:29.368Z,9.96
2023-03-21T02:51:02.792Z,9.98
2023-03-21T02:53:39.555Z,9.99
2023-03-21T02:56:10.785Z,9.99
2023-03-21T02:58:40.322Z,10.00
2023-03-21T03:01:09.604Z,10.02
2023-03-21T03:03:39.577Z,10.02
2023-03-21T03:06:17.385Z,10.04
2023-03-21T03:09:04.541Z,10.05
2023-03-21T03:11:35.917Z,10.06
2023-03-21T03:14:50.046Z,10.07
2023-03-21T03:17:28.576Z,10.06
2023-03-21T03:20:17.445Z,10.05
2023-03-21T03:23:00.228Z,10.06
2023-03-21T03:25:42.423Z,10.07
2023-03-21T03:28:14.471Z,10.09
2023-03-21T03:30:57.078Z,10.09
2023-03-21T03:33:34.734Z,10.09
2023-03-21T03:36:06.379Z,10.10
2023-03-21T03:38:37.081Z,10.10
2023-03-21T03:41:12.407Z,10.11
2023-03-21T03:43:46.908Z,10.12
2023-03-21T03:46:20.946Z,10.12
2023-03-21T03:48:56.661Z,10.13
2023-03-21T03:51:30.626Z,10.16
2023-03-21T03:54:03.646Z,10.16
2023-03-21T03:56:33.742Z,10.16
2023-03-21T03:59:05.527Z,10.18
2023-03-21T04:01:34.915Z,10.22
2023-03-21T04:04:12.612Z,10.23
2023-03-21T04:06:41.788Z,10.24
2023-03-21T04:09:20.467Z,10.24
2023-03-21T04:11:51.712Z,10.24
2023-03-21T04:14:20.014Z,10.26
2023-03-21T04:16:49.209Z,10.26
2023-03-21T04:19:20.544Z,10.25
2023-03-21T04:21:48.991Z,10.27
2023-03-21T04:24:17.508Z,10.26
2023-03-21T04:26:45.822Z,10.29
2023-03-21T04:29:15.558Z,10.29
2023-03-21T04:31:43.828Z,10.29
2023-03-21T04:34:12.695Z,10.28
2023-03-21T04:36:44.594Z,10.28
2023-03-21T04:39:13.325Z,10.29
2023-03-21T04:41:42.259Z,10.31
2023-03-21T04:44:11.813Z,10.32
2023-03-21T04:46:42.242Z,10.33
2023-03-21T04:49:11.090Z,10.33
2023-03-21T04:51:39.910Z,10.35
2023-03-21T04:56:36.351Z,10.35
2023-03-21T04:59:09.734Z,10.37
2023-03-21T05:01:38.223Z,10.37
2023-03-21T05:04:08.041Z,10.37
2023-03-21T05:06:36.709Z,10.38
2023-03-21T05:09:07.097Z,10.38
2023-03-21T05:11:37.786Z,10.37
2023-03-21T05:14:06.696Z,10.39
2023-03-21T05:16:36.452Z,10.37
2023-03-21T05:19:05.092Z,10.40
2023-03-21T05:21:41.359Z,10.40
2023-03-21T05:24:15.818Z,10.40
2023-03-21T05:26:50.356Z,10.40
2023-03-21T05:29:20.309Z,10.40
2023-03-21T05:31:48.793Z,10.42
2023-03-21T05:34:17.081Z,10.42
2023-03-21T05:36:46.720Z,10.43
2023-03-21T05:39:15.013Z,10.44
2023-03-21T05:41:46.206Z,10.45
2023-03-21T05:44:14.532Z,10.46
2023-03-21T05:46:43.451Z,10.47
2023-03-21T05:49:13.129Z,10.48
2023-03-21T05:51:41.581Z,10.48
2023-03-21T05:54:16.679Z,10.49
2023-03-21T05:56:45.016Z,10.50
2023-03-21T05:59:13.257Z,10.51
2023-03-21T06:01:44.250Z,10.53
2023-03-21T06:04:12.628Z,10.55
2023-03-21T06:06:40.970Z,10.57
2023-03-21T06:09:10.746Z,10.58
2023-03-21T06:11:42.115Z,10.61
2023-03-21T06:14:10.481Z,10.64
2023-03-21T06:16:38.729Z,10.66
2023-03-21T06:19:07.014Z,10.71
2023-03-21T06:21:35.503Z,10.73
2023-03-21T06:24:04.542Z,10.74
2023-03-21T06:26:34.246Z,10.77
2023-03-21T06:29:02.576Z,10.79
2023-03-21T06:31:31.010Z,10.79
2023-03-21T06:34:02.380Z,10.82
2023-03-21T06:36:30.791Z,10.84
2023-03-21T06:38:59.129Z,10.87
2023-03-21T06:41:27.525Z,10.89
2023-03-21T06:43:57.222Z,10.92
2023-03-21T06:46:25.749Z,10.96
2023-03-21T06:48:54.078Z,11.01
2023-03-21T06:51:22.415Z,11.08
2023-03-21T06:53:50.697Z,11.13
2023-03-21T06:56:19.954Z,11.20
2023-03-21T06:58:48.535Z,11.27
2023-03-21T07:01:18.243Z,11.35
2023-03-21T07:03:46.568Z,11.41
2023-03-21T07:06:14.949Z,11.49
2023-03-21T07:08:43.424Z,11.57
2023-03-21T07:11:11.754Z,11.66
2023-03-21T07:13:40.030Z,11.73
2023-03-21T07:16:10.226Z,11.82
2023-03-21T07:18:40.029Z,11.90
2023-03-21T07:21:08.875Z,11.99
2023-03-21T07:23:38.359Z,12.08
2023-03-21T07:26:08.227Z,12.17
2023-03-21T07:28:36.695Z,12.28
2023-03-21T07:31:08.458Z,12.40
2023-03-21T07:33:36.852Z,12.55
2023-03-21T07:36:12.818Z,12.68
2023-03-21T07:38:41.707Z,12.88
2023-03-21T07:41:10.005Z,13.06
2023-03-21T07:43:39.366Z,13.29
2023-03-21T07:46:08.383Z,13.46
2023-03-21T07:48:37.340Z,13.66
2023-03-21T07:51:07.846Z,13.88
2023-03-21T07:53:36.213Z,14.08
2023-03-21T07:56:05.690Z,14.26
2023-03-21T07:58:34.320Z,14.47
2023-03-21T08:01:03.328Z,14.69
2023-03-21T08:03:33.331Z,14.91
2023-03-21T08:06:02.148Z,15.15
2023-03-21T08:08:31.992Z,15.37
2023-03-21T08:11:00.377Z,15.62
2023-03-21T08:13:28.756Z,15.83
2023-03-21T08:15:57.096Z,16.00
2023-03-21T08:18:25.612Z,16.17
2023-03-21T08:20:54.970Z,16.34
2023-03-21T08:23:23.753Z,16.48
2023-03-21T08:25:55.344Z,16.58
2023-03-21T08:28:24.797Z,16.70
2023-03-21T08:30:53.181Z,16.80
2023-03-21T08:33:21.734Z,16.88
2023-03-21T08:35:50.147Z,16.99
2023-03-21T08:38:18.511Z,17.07
2023-03-21T08:40:46.968Z,17.16
2023-03-21T08:43:16.638Z,17.28
2023-03-21T08:45:45.003Z,17.41
2023-03-21T08:48:14.597Z,17.55
2023-03-21T08:50:43.083Z,17.71
2023-03-21T08:53:11.397Z,17.88
2023-03-21T08:55:42.447Z,18.05
2023-03-21T08:58:11.294Z,18.17
2023-03-21T09:00:41.069Z,18.32
2023-03-21T09:03:11.634Z,18.47
2023-03-21T09:05:40.896Z,18.61
2023-03-21T09:08:09.271Z,18.76
2023-03-21T09:10:37.626Z,18.88
2023-03-21T09:13:06.500Z,19.03
2023-03-21T09:15:35.434Z,19.17
2023-03-21T09:18:15.101Z,19.32
2023-03-21T09:20:44.742Z,19.43
2023-03-21T09:23:14.546Z,19.56
2023-03-21T09:25:43.485Z,19.70
2023-03-21T09:28:13.233Z,19.84
2023-03-21T09:30:41.637Z,19.90
2023-03-21T09:33:19.232Z,20.01
2023-03-21T09:35:49.098Z,20.05
2023-03-21T09:38:19.357Z,20.16
2023-03-21T09:41:04.539Z,20.22
2023-03-21T09:43:50.702Z,20.31
2023-03-21T09:46:27.082Z,20.39
2023-03-21T09:49:01.238Z,20.52
2023-03-21T09:51:36.983Z,20.60
2023-03-21T09:54:14.249Z,20.72
2023-03-21T09:56:44.703Z,20.82
2023-03-21T09:59:25.153Z,20.91
2023-03-21T10:01:55.350Z,20.99
2023-03-21T10:04:25.191Z,21.00
2023-03-21T10:06:59.627Z,21.06
2023-03-21T10:09:29.652Z,21.11
2023-03-21T10:12:03.677Z,21.17
2023-03-21T10:14:36.597Z,21.26
2023-03-21T10:17:21.426Z,21.29
2023-03-21T10:19:57.677Z,21.37
2023-03-21T10:22:26.011Z,21.46
2023-03-21T10:24:54.317Z,21.53
2023-03-21T10:27:27.909Z,21.60
2023-03-21T10:29:57.598Z,21.68
2023-03-21T10:32:25.990Z,21.81
2023-03-21T10:34:58.442Z,21.77
2023-03-21T10:37:27.720Z,21.80
2023-03-21T10:39:57.286Z,21.88
2023-03-21T10:42:28.126Z,21.84
2023-03-21T10:44:58.841Z,21.86
2023-03-21T10:47:31.642Z,21.86
2023-03-21T10:50:08.909Z,21.87
2023-03-21T10:52:43.449Z,21.87
2023-03-21T10:55:23.014Z,21.88
2023-03-21T10:57:58.914Z,21.96
2023-03-21T11:00:31.539Z,21.98
2023-03-21T11:03:00.847Z,22.06
2023-03-21T11:05:38.448Z,22.09
2023-03-21T11:08:12.720Z,22.16
2023-03-21T11:10:56.454Z,22.16
2023-03-21T11:13:28.278Z,22.21
2023-03-21T11:15:59.309Z,22.20
2023-03-21T11:18:33.100Z,22.21
2023-03-21T11:21:07.772Z,22.19
2023-03-21T11:23:41.189Z,22.20
2023-03-21T11:26:13.771Z,22.20
2023-03-21T11:28:44.914Z,22.23
2023-03-21T11:31:13.745Z,22.22
2023-03-21T11:33:57.476Z,22.29
2023-03-21T11:36:36.314Z,22.36
2023-03-21T11:39:29.585Z,22.40
2023-03-21T11:41:57.996Z,22.51
2023-03-21T11:44:42.571Z,22.55
2023-03-21T11:47:15.035Z,22.66
2023-03-21T11:49:43.352Z,22.75
2023-03-21T11:52:25.200Z,22.78
2023-03-21T11:55:22.300Z,22.83
2023-03-21T11:58:13.931Z,22.91
2023-03-21T12:00:50.008Z,22.94
2023-03-21T12:03:49.143Z,22.98
2023-03-21T12:06:29.838Z,23.01
2023-03-21T12:09:38.887Z,23.11
2023-03-21T12:12:39.166Z,23.14
2023-03-21T12:15:19.429Z,23.18
2023-03-21T12:17:58.958Z,23.26
2023-03-21T12:20:51.111Z,23.31
2023-03-21T12:23:40.465Z,23.33
2023-03-21T12:26:21.154Z,23.43
2023-03-21T12:29:20.859Z,23.48
2023-03-21T12:32:06.518Z,23.50
2023-03-21T12:35:31.598Z,23.54
2023-03-21T12:38:17.013Z,23.59
2023-03-21T12:41:02.105Z,23.63
2023-03-21T12:43:47.726Z,23.60
2023-03-21T12:46:22.555Z,23.65
2023-03-21T12:48:54.041Z,23.66
2023-03-21T12:51:29.463Z,23.72
2023-03-21T12:54:08.563Z,23.74
2023-03-21T12:56:45.940Z,23.76
2023-03-21T12:59:26.328Z,23.74
2023-03-21T13:02:01.743Z,23.76
2023-03-21T13:04:42.434Z,23.76
2023-03-21T13:07:18.090Z,23.76
2023-03-21T13:09:46.893Z,23.82
2023-03-21T13:12:42.394Z,23.82
2023-03-21T13:15:38.548Z,23.84
2023-03-21T13:18:19.279Z,23.88
2023-03-21T13:20:51.575Z,23.91
2023-03-21T13:23:21.240Z,23.90
2023-03-21T13:25:51.934Z,23.90
2023-03-21T13:28:24.427Z,23.92
2023-03-21T13:30:54.817Z,23.91
2023-03-21T13:33:29.928Z,23.93
2023-03-21T13:36:05.580Z,23.94
2023-03-21T13:38:36.411Z,23.92
2023-03-21T13:41:10.772Z,23.91
2023-03-21T13:43:47.651Z,23.95
2023-03-21T13:46:50.612Z,23.91
2023-03-21T13:49:31.454Z,23.90
2023-03-21T13:52:02.347Z,23.92
2023-03-21T13:54:51.665Z,23.93
2023-03-21T13:57:44.273Z,23.92
2023-03-21T14:00:25.663Z,23.91
2023-03-21T14:03:03.669Z,23.91
2023-03-21T14:05:35.500Z,23.93
2023-03-21T14:08:15.343Z,23.97
2023-03-21T14:10:49.135Z,23.97
2023-03-21T14:13:20.902Z,23.99
2023-03-21T14:15:56.282Z,23.98
2023-03-21T14:18:52.461Z,23.97
2023-03-21T14:21:24.245Z,23.96
2023-03-21T14:24:01.445Z,23.94
2023-03-21T14:26:34.308Z,23.93
2023-03-21T14:29:18.999Z,23.93
2023-03-21T14:31:53.550Z,23.89
2023-03-21T14:34:24.177Z,23.87
2023-03-21T14:36:58.317Z,23.85
2023-03-21T14:39:31.018Z,23.80
2023-03-21T14:42:06.145Z,23.76
2023-03-21T14:44:52.948Z,23.73
2023-03-21T14:47:25.062Z,23.70
2023-03-21T14:49:55.396Z,23.69
2023-03-21T14:52:27.241Z,23.65
2023-03-21T14:54:57.269Z,23.62
2023-03-21T14:57:29.025Z,23.59
2023-03-21T15:00:01.849Z,23.51
2023-03-21T15:02:35.025Z,23.42
2023-03-21T15:05:15.447Z,23.36
2023-03-21T15:07:43.799Z,23.32
2023-03-21T15:10:18.360Z,23.24
2023-03-21T15:12:54.935Z,23.19
2023-03-21T15:15:27.388Z,23.10
2023-03-21T15:17:58.270Z,23.02
2023-03-21T15:20:33.424Z,22.94
2023-03-21T15:23:05.599Z,22.87
2023-03-21T15:25:36.866Z,22.80
2023-03-21T15:28:06.722Z,22.72
2023-03-21T15:30:36.282Z,22.64
2023-03-21T15:33:11.019Z,22.57
2023-03-21T15:35:46.019Z,22.49
2023-03-21T15:38:25.771Z,22.42
2023-03-21T15:41:16.607Z,22.33
2023-03-21T15:43:45.312Z,22.29
2023-03-21T15:46:19.042Z,22.21
2023-03-21T15:48:47.492Z,22.16
2023-03-21T15:51:22.797Z,22.10
2023-03-21T15:53:55.234Z,22.04
2023-03-21T15:56:25.126Z,21.98
2023-03-21T15:58:57.178Z,21.95
2023-03-21T16:01:26.357Z,21.91
2023-03-21T16:03:59.631Z,21.84
2023-03-21T16:06:34.825Z,21.77
2023-03-21T16:09:14.363Z,21.72
2023-03-21T16:11:45.603Z,21.69
2023-03-21T16:14:13.900Z,21.64
2023-03-21T16:16:42.522Z,21.59
2023-03-21T16:19:10.956Z,21.54
2023-03-21T16:21:40.786Z,21.47
2023-03-21T16:24:12.950Z,21.43
2023-03-21T16:26:47.713Z,21.35
2023-03-21T16:29:17.072Z,21.29
2023-03-21T16:31:45.870Z,21.22
2023-03-21T16:34:14.194Z,21.14
2023-03-21T16:36:44.531Z,21.08
2023-03-21T16:39:19.241Z,20.99
2023-03-21T16:41:48.215Z,20.94
2023-03-21T16:44:16.703Z,20.86
2023-03-21T16:46:47.122Z,20.79
2023-03-21T16:49:24.631Z,20.71
2023-03-21T16:51:55.310Z,20.65
2023-03-21T16:54:24.250Z,20.55
2023-03-21T16:56:54.783Z,20.44
2023-03-21T16:59:23.728Z,20.38
2023-03-21T17:01:52.512Z,20.31
2023-03-21T17:04:20.909Z,20.23
2023-03-21T17:06:51.632Z,20.15
2023-03-21T17:09:24.308Z,20.08
2023-03-21T17:11:52.745Z,20.01
2023-03-21T17:14:26.836Z,19.93
2023-03-21T17:16:55.318Z,19.85
2023-03-21T17:19:26.483Z,19.76
2023-03-21T17:21:55.297Z,19.66
2023-03-21T17:24:26.367Z,19.55
2023-03-21T17:26:54.711Z,19.45
2023-03-21T17:29:23.117Z,19.35
2023-03-21T17:31:51.685Z,19.26
2023-03-21T17:34:20.285Z,19.15
2023-03-21T17:36:49.952Z,19.06
2023-03-21T17:39:23.921Z,18.94
2023-03-21T17:41:55.085Z,18.84
2023-03-21T17:44:23.488Z,18.75
2023-03-21T17:46:52.474Z,18.64
2023-03-21T17:49:21.445Z,18.55
2023-03-21T17:51:50.506Z,18.44
2023-03-21T17:54:19.079Z,18.33
2023-03-21T17:56:48.474Z,18.25
2023-03-21T17:59:18.293Z,18.15
2023-03-21T18:01:47.435Z,18.08
2023-03-21T18:04:16.112Z,18.01
2023-03-21T18:06:44.967Z,17.96
2023-03-21T18:09:13.993Z,17.91
2023-03-21T18:11:42.663Z,17.86
2023-03-21T18:14:17.693Z,17.83
2023-03-21T18:16:50.649Z,17.78
2023-03-21T18:19:19.332Z,17.74
2023-03-21T18:21:47.799Z,17.71
2023-03-21T18:24:16.722Z,17.70
2023-03-21T18:26:46.200Z,17.66
2023-03-21T18:32:08.950Z,17.58
2023-03-21T18:34:39.916Z,17.54
2023-03-21T18:37:11.368Z,17.53
2023-03-21T18:39:42.501Z,17.49
2023-03-21T18:42:17.317Z,17.46
2023-03-21T18:44:48.206Z,17.42
2023-03-21T18:47:18.484Z,17.38
2023-03-21T18:50:13.589Z,17.35
2023-03-21T18:52:35.552Z,17.29
2023-03-21T18:55:04.776Z,17.25
2023-03-21T18:57:37.840Z,17.20
2023-03-21T19:00:12.958Z,17.16
2023-03-21T19:02:47.340Z,17.10
2023-03-21T19:05:18.709Z,17.06
2023-03-21T19:07:48.040Z,17.02
2023-03-21T19:10:19.579Z,16.98
2023-03-21T19:12:49.321Z,16.95
2023-03-21T19:15:19.735Z,16.89
2023-03-21T19:18:37.189Z,16.83
2023-03-21T19:20:45.176Z,16.76
2023-03-21T19:23:13.802Z,16.72
2023-03-21T19:25:43.874Z,16.68
2023-03-21T19:28:12.222Z,16.63
2023-03-21T19:30:49.071Z,16.59
2023-03-21T19:33:20.095Z,16.53
2023-03-21T19:35:50.355Z,16.47
2023-03-21T19:38:18.797Z,16.43
2023-03-21T19:40:47.156Z,16.38
2023-03-21T19:43:32.194Z,16.33
2023-03-21T19:46:02.057Z,16.28
2023-03-21T19:48:32.469Z,16.24
2023-03-21T19:51:26.708Z,16.19
2023-03-21T19:53:51.170Z,16.15
2023-03-21T19:56:23.007Z,16.10
2023-03-21T19:58:53.000Z,16.07
2023-03-21T20:01:21.868Z,16.03
2023-03-21T20:03:51.721Z,15.99
2023-03-21T20:06:22.317Z,15.96
2023-03-21T20:09:27.576Z,15.94
2023-03-21T20:11:39.358Z,15.88
2023-03-21T20:14:07.859Z,15.87
2023-03-21T20:16:37.032Z,15.85
2023-03-21T20:19:09.965Z,15.81
2023-03-21T20:21:53.014Z,15.80
2023-03-21T20:24:24.852Z,15.77
2023-03-21T20:26:55.001Z,15.76
2023-03-21T20:32:20.735Z,15.73
2023-03-21T20:34:50.388Z,15.71
2023-03-21T20:37:18.778Z,15.71
2023-03-21T20:39:58.271Z,15.69
2023-03-21T20:42:26.834Z,15.68
2023-03-21T20:44:59.361Z,15.68
2023-03-21T20:47:28.999Z,15.67
2023-03-21T20:49:59.646Z,15.67
2023-03-21T20:52:54.779Z,15.67
2023-03-21T20:55:18.218Z,15.63
2023-03-21T20:57:48.625Z,15.63
2023-03-21T21:00:18.729Z,15.62
2023-03-21T21:02:49.544Z,15.59
2023-03-21T21:05:30.621Z,15.57
2023-03-21T21:08:02.908Z,15.55
2023-03-21T21:10:33.820Z,15.54
2023-03-21T21:13:02.862Z,15.55
2023-03-21T21:15:31.354Z,15.54
2023-03-21T21:18:07.877Z,15.53
2023-03-21T21:20:40.132Z,15.52
2023-03-21T21:23:09.639Z,15.52
2023-03-21T21:25:38.333Z,15.51
2023-03-21T21:28:09.417Z,15.51
2023-03-21T21:30:42.825Z,15.48
2023-03-21T21:33:11.450Z,15.47
2023-03-21T21:35:47.379Z,15.46
2023-03-21T21:38:17.555Z,15.44
2023-03-21T21:40:46.230Z,15.41
2023-03-21T21:43:15.269Z,15.37
2023-03-21T21:45:44.610Z,15.33
2023-03-21T21:48:13.387Z,15.30
2023-03-21T21:50:47.401Z,15.28
2023-03-21T21:53:18.512Z,15.26
2023-03-21T21:55:48.647Z,15.25
2023-03-21T21:58:19.083Z,15.23
2023-03-21T22:00:48.740Z,15.21
2023-03-21T22:03:22.208Z,15.17
2023-03-21T22:05:54.573Z,15.14
2023-03-21T22:08:23.147Z,15.12
2023-03-21T22:10:51.577Z,15.11
2023-03-21T22:13:19.847Z,15.08
2023-03-21T22:15:48.308Z,15.07
2023-03-21T22:18:16.610Z,15.04
2023-03-21T22:20:45.623Z,15.01
2023-03-21T22:23:15.625Z,14.98
2023-03-21T22:25:44.384Z,14.95
2023-03-21T22:28:12.690Z,14.91
2023-03-21T22:30:41.035Z,14.89
2023-03-21T22:33:10.224Z,14.87
2023-03-21T22:35:39.163Z,14.84
2023-03-21T22:38:07.550Z,14.82
2023-03-21T22:40:37.621Z,14.80
2023-03-21T22:43:06.237Z,14.77
2023-03-21T22:45:35.233Z,14.75
2023-03-21T22:48:03.718Z,14.72
2023-03-21T22:50:32.129Z,14.70
2023-03-21T22:53:00.564Z,14.67
2023-03-21T22:55:28.985Z,14.64
2023-03-21T22:57:58.630Z,14.61
2023-03-21T23:00:27.582Z,14.61
2023-03-21T23:02:57.152Z,14.58
2023-03-21T23:05:25.475Z,14.56
2023-03-21T23:07:56.871Z,14.54
2023-03-21T23:10:25.413Z,14.53
2023-03-21T23:12:56.460Z,14.51
2023-03-21T23:15:26.306Z,14.49
2023-03-21T23:17:54.591Z,14.49
2023-03-21T23:20:25.899Z,14.47
2023-03-21T23:22:54.219Z,14.46
2023-03-21T23:25:27.585Z,14.42
2023-03-21T23:27:56.312Z,14.43
2023-03-21T23:30:26.190Z,14.43
2023-03-21T23:32:54.489Z,14.41
2023-03-21T23:35:22.842Z,14.41
2023-03-21T23:37:52.740Z,14.40
2023-03-21T23:40:21.824Z,14.39
2023-03-21T23:42:50.103Z,14.38
2023-03-21T23:45:21.491Z,14.36
2023-03-21T23:47:51.207Z,14.35
2023-03-21T23:50:19.699Z,14.32
2023-03-21T23:52:48.034Z,14.30
2023-03-21T23:55:19.270Z,14.27
2023-03-21T23:57:48.154Z,14.27
